Change the Weather History Date:

Friday, May 24, 2013

  Actual Average Record
Temperature  
Mean Temperature 47 °F -  
Max Temperature 66 °F 62 °F 84 °F (2014)
Min Temperature 28 °F 37 °F 28 °F (2003)
Degree Days  
Heating Degree Days 18    
Moisture  
Dew Point 28 °F    
Average Humidity 48    
Maximum Humidity 93    
Minimum Humidity 19    
Precipitation  
Precipitation 0.00 in - - ()
Sea Level Pressure  
Sea Level Pressure 30.31 in    
Wind  
Wind Speed 2 mph (SSW)    
Max Wind Speed 9 mph    
Max Gust Speed 17 mph    
Visibility 10 miles    
Events      
Averages and records for this station are not official NWS values.
T = Trace of Precipitation, MM = Missing Value Source: NWS Daily Summary

Daily Weather History Graph

Daily Weather History Graph

Search for Another Location

Airport or City:

Trip Planner

Search our weather history database for the weather conditions in past years. The results will help you decide how hot, cold, wet, or windy it might be!

Date:

Astronomy

May. 24, 2013 Rise Set
Actual Time 5:18 AM CDT 8:50 PM CDT
Civil Twilight 4:40 AM CDT 9:28 PM CDT
Nautical Twilight 3:49 AM CDT 10:20 PM CDT
Astronomical Twilight 2:41 AM CDT 11:29 PM CDT
Moon 8:30 PM CDT (5/24) 4:55 AM CDT (5/24)
Length of Visible Light 16h 48m
Length of Day
15h 31m
Full, 100% of the Moon is Illuminated
May 24
Full
May 24
Full
May 31
Last Quarter
Jun 8
New
Jun 16
First Quarter

Hourly Weather History & Observations

Time (CDT) Temp. Windchill Dew Point Humidity Pressure Visibility Wind Dir Wind Speed Gust Speed Precip Events Conditions
12:12 AM 35.6 °F - 30.2 °F 81% 30.34 in 10.0 mi Calm Calm - N/A   Clear
12:33 AM 35.6 °F - 30.2 °F 81% 30.34 in 10.0 mi Calm Calm - N/A   Clear
12:53 AM 35.6 °F - 30.2 °F 81% 30.34 in 10.0 mi Calm Calm - N/A   Clear
1:13 AM 33.8 °F - 30.2 °F 87% 30.35 in 10.0 mi Calm Calm - N/A   Clear
1:33 AM 33.8 °F - 30.2 °F 87% 30.35 in 10.0 mi Calm Calm - N/A   Clear
1:52 AM 33.8 °F - 28.4 °F 81% 30.35 in 10.0 mi Calm Calm - N/A   Clear
2:13 AM 32.0 °F - 28.4 °F 87% 30.35 in 10.0 mi Calm Calm - N/A   Clear
2:33 AM 30.2 °F - 28.4 °F 93% 30.35 in 10.0 mi Calm Calm - N/A   Clear
2:52 AM 30.2 °F - 28.4 °F 93% 30.35 in 10.0 mi Calm Calm - N/A   Clear
3:13 AM 30.2 °F - 28.4 °F 93% 30.35 in 10.0 mi Calm Calm - N/A   Clear
3:33 AM 30.2 °F 26.7 °F 28.4 °F 93% 30.35 in 10.0 mi SE 3.5 mph - N/A   Clear
3:52 AM 30.2 °F - 28.4 °F 93% 30.35 in 10.0 mi Calm Calm - N/A   Clear
4:13 AM 28.4 °F - 26.6 °F 93% 30.36 in 10.0 mi Calm Calm - N/A   Clear
4:33 AM 28.4 °F - 26.6 °F 93% 30.35 in 10.0 mi Calm Calm - N/A   Clear
4:52 AM 28.4 °F - 26.6 °F 93% 30.35 in 10.0 mi Calm Calm - N/A   Clear
5:13 AM 28.4 °F - 26.6 °F 93% 30.36 in 10.0 mi Calm Calm - N/A   Clear
5:33 AM 28.4 °F - 26.6 °F 93% 30.37 in 10.0 mi Calm Calm - N/A   Clear
5:52 AM 28.4 °F - 26.6 °F 93% 30.37 in 10.0 mi Calm Calm - N/A   Clear
6:13 AM 30.2 °F 26.7 °F 28.4 °F 93% 30.37 in 10.0 mi ESE 3.5 mph - N/A   Clear
6:33 AM 33.8 °F 30.8 °F 30.2 °F 87% 30.36 in 10.0 mi ESE 3.5 mph - N/A   Clear
6:52 AM 37.4 °F - 30.2 °F 75% 30.37 in 10.0 mi Calm Calm - N/A   Clear
7:13 AM 42.8 °F - 30.2 °F 61% 30.37 in 10.0 mi Calm Calm - N/A   Clear
7:33 AM 44.6 °F 43.1 °F 30.2 °F 57% 30.37 in 10.0 mi South 3.5 mph - N/A   Clear
7:52 AM 46.4 °F - 30.2 °F 53% 30.38 in 10.0 mi Calm Calm - N/A   Clear
8:13 AM 48.2 °F - 30.2 °F 50% 30.38 in 10.0 mi SSW 5.8 mph - N/A   Clear
8:33 AM 51.8 °F - 28.4 °F 41% 30.37 in 10.0 mi SSW 6.9 mph - N/A   Clear
8:52 AM 51.8 °F - 26.6 °F 38% 30.37 in 10.0 mi SSW 6.9 mph - N/A   Clear
9:13 AM 53.6 °F - 26.6 °F 35% 30.37 in 10.0 mi South 8.1 mph - N/A   Clear
9:33 AM 55.4 °F - 26.6 °F 33% 30.36 in 10.0 mi SW 6.9 mph - N/A   Clear
9:52 AM 55.4 °F - 26.6 °F 33% 30.36 in 10.0 mi SW 4.6 mph - N/A   Clear
10:13 AM 55.4 °F - 26.6 °F 33% 30.35 in 10.0 mi SSW 8.1 mph - N/A   Clear
10:33 AM 57.2 °F - 26.6 °F 31% 30.35 in 10.0 mi SW 4.6 mph - N/A   Clear
10:52 AM 57.2 °F - 26.6 °F 31% 30.34 in 10.0 mi WSW 5.8 mph - N/A   Clear
11:13 AM 57.2 °F - 26.6 °F 31% 30.34 in 10.0 mi SW 3.5 mph - N/A   Clear
11:33 AM 59.0 °F - 26.6 °F 29% 30.34 in 10.0 mi West 9.2 mph - N/A   Clear
11:52 AM 60.8 °F - 26.6 °F 27% 30.33 in 10.0 mi WNW 4.6 mph - N/A   Clear
12:13 PM 60.8 °F - 26.6 °F 27% 30.32 in 10.0 mi NNW 3.5 mph - N/A   Clear
12:33 PM 60.8 °F - 26.6 °F 27% 30.32 in 10.0 mi SW 4.6 mph - N/A   Clear
12:52 PM 60.8 °F - 24.8 °F 25% 30.31 in 10.0 mi SSE 3.5 mph - N/A   Clear
1:13 PM 62.6 °F - 26.6 °F 26% 30.30 in 10.0 mi SSE 8.1 mph - N/A   Clear
1:33 PM 62.6 °F - 26.6 °F 26% 30.30 in 10.0 mi West 3.5 mph - N/A   Clear
1:53 PM 62.6 °F - 24.8 °F 24% 30.29 in 10.0 mi SSW 9.2 mph - N/A   Clear
2:13 PM 64.4 °F - 23.0 °F 21% 30.29 in 10.0 mi West 6.9 mph 17.3 mph N/A   Clear
2:32 PM 64.4 °F - 24.8 °F 22% 30.28 in 10.0 mi Calm Calm - N/A   Clear
2:53 PM 64.4 °F - 26.6 °F 24% 30.27 in 10.0 mi ESE 4.6 mph - N/A   Clear
3:13 PM 64.4 °F - 26.6 °F 24% 30.26 in 10.0 mi West 4.6 mph - N/A   Clear
3:32 PM 66.2 °F - 24.8 °F 21% 30.25 in 10.0 mi SW 4.6 mph - N/A   Clear
3:53 PM 66.2 °F - 23.0 °F 19% 30.25 in 10.0 mi Calm Calm - N/A   Clear
4:12 PM 66.2 °F - 24.8 °F 21% 30.24 in 10.0 mi West 4.6 mph - N/A   Clear
4:33 PM 66.2 °F - 24.8 °F 21% 30.23 in 10.0 mi West 9.2 mph - N/A   Clear
4:53 PM 66.2 °F - 23.0 °F 19% 30.23 in 10.0 mi Calm Calm - N/A   Clear
5:12 PM 66.2 °F - 23.0 °F 19% 30.23 in 10.0 mi WNW 5.8 mph - N/A   Clear
5:33 PM 66.2 °F - 23.0 °F 19% 30.23 in 10.0 mi WSW 5.8 mph - N/A   Clear
5:53 PM 66.2 °F - 23.0 °F 19% 30.23 in 10.0 mi WSW 5.8 mph - N/A   Clear
6:12 PM 66.2 °F - 24.8 °F 21% 30.23 in 10.0 mi West 5.8 mph - N/A   Clear
6:33 PM 66.2 °F - 24.8 °F 21% 30.23 in 10.0 mi SW 4.6 mph - N/A   Clear
6:53 PM 64.4 °F - 26.6 °F 24% 30.23 in 10.0 mi SW 5.8 mph - N/A   Clear
7:12 PM 64.4 °F - 26.6 °F 24% 30.23 in 10.0 mi SW 5.8 mph - N/A   Clear
7:33 PM 64.4 °F - 26.6 °F 24% 30.23 in 10.0 mi South 6.9 mph - N/A   Clear
7:53 PM 62.6 °F - 26.6 °F 26% 30.23 in 10.0 mi South 4.6 mph - N/A   Clear
8:13 PM 62.6 °F - 28.4 °F 27% 30.23 in 10.0 mi SSW 3.5 mph - N/A   Clear
8:33 PM 60.8 °F - 28.4 °F 29% 30.23 in 10.0 mi SSW 3.5 mph - N/A   Clear
8:53 PM 60.8 °F - 26.6 °F 27% 30.23 in 10.0 mi South 3.5 mph - N/A   Clear
9:13 PM 57.2 °F - 28.4 °F 33% 30.24 in 10.0 mi South 3.5 mph - N/A   Clear
9:33 PM 57.2 °F - 30.2 °F 36% 30.24 in 10.0 mi SSW 4.6 mph - N/A   Clear
9:53 PM 55.4 °F - 30.2 °F 38% 30.25 in 10.0 mi SSE 3.5 mph - N/A   Clear
10:12 PM 53.6 °F - 33.8 °F 47% 30.26 in 10.0 mi SE 5.8 mph - N/A   Clear
10:33 PM 53.6 °F - 33.8 °F 47% 30.26 in 10.0 mi SSE 8.1 mph - N/A   Clear
10:53 PM 53.6 °F - 32.0 °F 44% 30.26 in 10.0 mi SSE 5.8 mph - N/A   Clear
11:12 PM 51.8 °F - 30.2 °F 44% 30.27 in 10.0 mi SSE 4.6 mph - N/A   Clear
11:33 PM 50.0 °F - 33.8 °F 54% 30.27 in 10.0 mi SSE 4.6 mph - N/A   Clear
11:53 PM 50.0 °F - 30.2 °F 47% 30.27 in 10.0 mi SSE 4.6 mph - N/A   Clear